Federal Sable — V7WS4 — position and weather

sailwx.info

Track history (hours):
 
Tides and Currents Weather Stations Pressure Air Temp Water Temp Dewpoint Dewpoint Depression Visibility Wind Speed Wind Dir Waves Ship Positions

Federal Sable

Last reported at 2018-Jan-06 14:49 UTC. Time now 2018-Feb-23 06:50 UTC.
Position N 49°49' W 003°27'.
Warning: this ship's position is 47 days out of date.

Length 190 m; draft 9.7 m.

Type: Cargo ship. MMSI: 538004380.

Date/timePositionNaut miles runAvg speedWind from/ knotsBaromVisibWave heightAir tempDewpointWater temp
2018-Jan-06 14:49N 49°49' W 003°27'310.5
2018-Jan-06 14:30N 49°51' W 003°23'16 9.6
2018-Jan-06 12:52N 49°59' W 003°03'3 8.1
2018-Jan-06 12:30N 49°60' W 002°58'4 7.8
2018-Jan-06 12:00N 50°01' W 002°52'4 7.0
2018-Jan-06 11:29N 50°02' W 002°47'4 6.3
2018-Jan-06 10:56N 50°03' W 002°41'3 6.0
2018-Jan-06 10:30N 50°03' W 002°38'88 9.1
2018-Jan-06 00:45N 50°27' W 000°24'2 6.5
2018-Jan-06 00:30N 50°27' W 000°22'3 6.1
2018-Jan-06 00:00N 50°28' W 000°17'3 5.5
2018-Jan-05 23:30N 50°28' W 000°13'3 5.6
2018-Jan-05 23:00N 50°29' W 000°09'3 6.3
2018-Jan-05 22:30N 50°30' W 000°04'3 6.9
2018-Jan-05 22:00N 50°31' E 000°01'4 7.5
2018-Jan-05 21:29N 50°32' E 000°07'4 8.1
2018-Jan-05 21:00N 50°33' E 000°13'5 8.8
2018-Jan-05 20:30N 50°34' E 000°20'5 9.4
2018-Jan-05 20:00N 50°35' E 000°27'5 9.2
2018-Jan-05 19:30N 50°37' E 000°34'5 9.4
2018-Jan-05 19:00N 50°39' E 000°40'5 9.1
2018-Jan-05 18:30N 50°42' E 000°46'4 8.9
2018-Jan-05 18:00N 50°45' E 000°51'17 7.3
2018-Jan-05 15:40N 50°56' E 001°12'1 5.7
2018-Jan-05 15:28N 50°57' E 001°13'3 5.2
2018-Jan-05 14:56N 50°59' E 001°16'2 4.6
2018-Jan-05 14:30N 50°60' E 001°19'2 4.5
2018-Jan-05 14:00N 51°01' E 001°22'2 4.5
2018-Jan-05 13:30N 51°03' E 001°24'2 4.6
2018-Jan-05 13:00N 51°05' E 001°27'2 4.9
2018-Jan-05 12:30N 51°07' E 001°25'3 5.6
2018-Jan-05 12:00N 51°09' E 001°26'2 3.5
2018-Jan-05 11:28N 51°11' E 001°27'0 0.3
2018-Jan-05 10:58N 51°11' E 001°27'0 0.3
2018-Jan-05 10:28N 51°11' E 001°27'0 0.1
2018-Jan-05 09:58N 51°11' E 001°27'0 0.0
2018-Jan-05 09:28N 51°11' E 001°27'0 0.4
2018-Jan-05 09:00N 51°11' E 001°27'2 3.3
2018-Jan-05 08:30N 51°09' E 001°28'3 6.2
2018-Jan-05 08:00N 51°06' E 001°27'3 5.2
2018-Jan-05 07:30N 51°06' E 001°31'5 9.4
2018-Jan-05 07:00N 51°09' E 001°37'4 8.9
2018-Jan-05 06:30N 51°12' E 001°42'4 8.5
2018-Jan-05 06:00N 51°15' E 001°47'4 8.5
2018-Jan-05 05:31N 51°19' E 001°50'4 8.5
2018-Jan-05 05:00N 51°23' E 001°53'4 8.3
2018-Jan-05 04:30N 51°27' E 001°55'4 7.1
2018-Jan-05 04:00N 51°30' E 001°58'2 3.3
2018-Jan-05 03:30N 51°31' E 001°59'1 2.8
2018-Jan-05 03:00N 51°32' E 002°01'2 4.0
2018-Jan-05 02:30N 51°32' E 002°04'2 4.5
2018-Jan-05 01:58N 51°32' E 002°08'3 5.1
2018-Jan-05 01:25N 51°34' E 002°11'89 9.3
2018-Jan-04 15:54N 52°44' E 003°40'3 8.4
2018-Jan-04 15:30N 52°47' E 003°43'4 7.9
2018-Jan-04 14:59N 52°50' E 003°47'11 9.1
2018-Jan-04 13:47N 52°58' E 003°60'1210.0
2018-Jan-04 12:34N 53°06' E 004°15'110.2
2018-Jan-04 12:26N 53°07' E 004°17'183 6.5
2018-Jan-03 08:20N 55°50' E 006°42'2 7.4
2018-Jan-03 08:00N 55°52' E 006°43'510.3
2018-Jan-03 07:29N 55°57' E 006°47'5 9.4
2018-Jan-03 06:59N 56°01' E 006°50'3 7.0
2018-Jan-03 06:30N 56°04' E 006°52'126 7.6
2018-Jan-02 14:01N 57°55' E 008°41'010.1
2018-Jan-02 14:00N 57°55' E 008°41'5 9.7
2018-Jan-02 13:30N 57°60' E 008°45'10 9.7
2018-Jan-02 12:31N 58°07' E 008°56'0 9.5
2018-Jan-02 12:30N 58°07' E 008°56'5 9.2
2018-Jan-02 12:00N 58°11' E 009°02'5 9.0
2018-Jan-02 11:28N 58°15' E 009°07'21 9.1
2018-Jan-02 09:11N 58°30' E 009°33'6 9.0
2018-Jan-02 08:30N 58°35' E 009°41'4 8.8
2018-Jan-02 08:00N 58°39' E 009°45'5 9.3
2018-Jan-02 07:30N 58°44' E 009°46'5 9.4
2018-Jan-02 07:00N 58°48' E 009°47'5 9.2
2018-Jan-02 06:30N 58°53' E 009°48'5 9.2
2018-Jan-02 06:00N 58°57' E 009°47'4 8.7
2018-Jan-02 05:30N 59°02' E 009°44'7 6.7
2018-Jan-02 04:30N 59°07' E 009°37'0 0.5
2018-Jan-02 04:00N 59°07' E 009°37'0 0.0
2018-Jan-02 03:30N 59°07' E 009°37'0 0.0
2018-Jan-02 03:00N 59°07' E 009°37'0 0.0
2018-Jan-02 02:30N 59°07' E 009°37'0 0.0
2018-Jan-02 02:00N 59°07' E 009°37'0 0.0
2018-Jan-02 01:30N 59°07' E 009°37'0 0.0
2018-Jan-02 01:00N 59°07' E 009°37'0 0.0
2018-Jan-02 00:30N 59°07' E 009°37'0 0.0
2018-Jan-02 00:00N 59°07' E 009°37'0 0.0
2018-Jan-01 23:30N 59°07' E 009°37'0 0.0
2018-Jan-01 23:00N 59°07' E 009°37'0 0.0
2018-Jan-01 22:30N 59°07' E 009°37'0 0.0
2018-Jan-01 22:00N 59°07' E 009°37'0 0.0
2018-Jan-01 21:30N 59°07' E 009°37'0 0.0
2018-Jan-01 21:00N 59°07' E 009°37'0 0.0
2018-Jan-01 20:30N 59°07' E 009°37'0 0.0
2018-Jan-01 20:00N 59°07' E 009°37'0 0.0
2018-Jan-01 19:30N 59°07' E 009°37'0 0.0
2018-Jan-01 19:00N 59°07' E 009°37'0 0.0
2018-Jan-01 18:30N 59°07' E 009°37'0 0.0
2018-Jan-01 18:00N 59°07' E 009°37'0 0.0
2018-Jan-01 17:30N 59°07' E 009°37'0 0.0
2018-Jan-01 15:00N 59°07' E 009°37'0 0.0
2018-Jan-01 14:30N 59°07' E 009°37'0 0.0
2018-Jan-01 14:00N 59°07' E 009°37'0 0.0
2018-Jan-01 13:30N 59°07' E 009°37'0 0.0
2018-Jan-01 13:00N 59°07' E 009°37'0 0.0
2018-Jan-01 12:00N 59°07' E 009°37'0 0.0
2018-Jan-01 11:30N 59°07' E 009°37'0 0.0
2018-Jan-01 11:00N 59°07' E 009°37'0 0.0
2018-Jan-01 10:30N 59°07' E 009°37'0 0.0
2018-Jan-01 10:00N 59°07' E 009°37'0 0.0
2018-Jan-01 09:30N 59°07' E 009°37'0 0.0
2018-Jan-01 08:30N 59°07' E 009°37'0 0.0
2018-Jan-01 08:00N 59°07' E 009°37'0 0.0
2018-Jan-01 07:30N 59°07' E 009°37'0 0.0
2018-Jan-01 07:00N 59°07' E 009°37'0 0.0
2018-Jan-01 06:00N 59°07' E 009°37'0 0.0
2018-Jan-01 05:30N 59°07' E 009°37'0 0.0
2018-Jan-01 05:00N 59°07' E 009°37'0 0.0
2018-Jan-01 04:00N 59°07' E 009°37'0 0.0
2018-Jan-01 03:30N 59°07' E 009°37'0 0.0
2018-Jan-01 03:00N 59°07' E 009°37'0 0.0
2018-Jan-01 02:30N 59°07' E 009°37'0 0.0
2018-Jan-01 02:00N 59°07' E 009°37'0 0.0
2018-Jan-01 01:30N 59°07' E 009°37'2 2.1
2018-Jan-01 00:30N 59°05' E 009°38'15 4.3
2017-Dec-31 21:00N 58°51' E 009°46'1 1.6
2017-Dec-31 20:31N 58°51' E 009°48'1 2.6
2017-Dec-31 20:00N 58°53' E 009°48'4 8.1
2017-Dec-31 19:30N 58°49' E 009°48'612.4
2017-Dec-31 19:00N 58°42' E 009°48'3811.4
2017-Dec-31 15:41N 58°10' E 009°12'212.3
2017-Dec-31 15:31N 58°08' E 009°09'1012.3
2017-Dec-31 14:44N 58°01' E 008°58'412.2
2017-Dec-31 14:23N 57°58' E 008°52'29412.1
2017-Dec-30 14:09N 53°37' E 004°51'212.1
2017-Dec-30 14:00N 53°35' E 004°50'1212.7
2017-Dec-30 13:01N 53°24' E 004°42'2414.2
2017-Dec-30 11:19N 53°03' E 004°23'413.1
2017-Dec-30 11:00N 52°59' E 004°20'612.8
2017-Dec-30 10:30N 52°53' E 004°17'612.5
2017-Dec-30 10:00N 52°48' E 004°11'612.3
2017-Dec-30 09:30N 52°43' E 004°04'712.2
2017-Dec-30 08:58N 52°40' E 003°55'8510.8
2017-Dec-30 01:04N 51°27' E 002°42'112.3
2017-Dec-30 00:59N 51°26' E 002°42'510.7
2017-Dec-30 00:30N 51°22' E 002°46'  
Track history (hours):
 
Tides and Currents Weather Stations Pressure Air Temp Water Temp Dewpoint Dewpoint Depression Visibility Wind Speed Wind Dir Waves Ship Positions

Federal Sable

Last reported at 2018-Jan-06 14:49 UTC. Time now 2018-Feb-23 06:50 UTC.
Position N 49°49' W 003°27'.
Warning: this ship's position is 47 days out of date.

Length 190 m; draft 9.7 m.

Type: Cargo ship. MMSI: 538004380.

Date/timePositionNaut miles runAvg speedWind from/ knotsBaromVisibWave heightAir tempDewpointWater temp
2018-Jan-06 14:49N 49°49' W 003°27'310.5
2018-Jan-06 14:30N 49°51' W 003°23'16 9.6
2018-Jan-06 12:52N 49°59' W 003°03'3 8.1
2018-Jan-06 12:30N 49°60' W 002°58'4 7.8
2018-Jan-06 12:00N 50°01' W 002°52'4 7.0
2018-Jan-06 11:29N 50°02' W 002°47'4 6.3
2018-Jan-06 10:56N 50°03' W 002°41'3 6.0
2018-Jan-06 10:30N 50°03' W 002°38'88 9.1
2018-Jan-06 00:45N 50°27' W 000°24'2 6.5
2018-Jan-06 00:30N 50°27' W 000°22'3 6.1
2018-Jan-06 00:00N 50°28' W 000°17'3 5.5
2018-Jan-05 23:30N 50°28' W 000°13'3 5.6
2018-Jan-05 23:00N 50°29' W 000°09'3 6.3
2018-Jan-05 22:30N 50°30' W 000°04'3 6.9
2018-Jan-05 22:00N 50°31' E 000°01'4 7.5
2018-Jan-05 21:29N 50°32' E 000°07'4 8.1
2018-Jan-05 21:00N 50°33' E 000°13'5 8.8
2018-Jan-05 20:30N 50°34' E 000°20'5 9.4
2018-Jan-05 20:00N 50°35' E 000°27'5 9.2
2018-Jan-05 19:30N 50°37' E 000°34'5 9.4
2018-Jan-05 19:00N 50°39' E 000°40'5 9.1
2018-Jan-05 18:30N 50°42' E 000°46'4 8.9
2018-Jan-05 18:00N 50°45' E 000°51'17 7.3
2018-Jan-05 15:40N 50°56' E 001°12'1 5.7
2018-Jan-05 15:28N 50°57' E 001°13'3 5.2
2018-Jan-05 14:56N 50°59' E 001°16'2 4.6
2018-Jan-05 14:30N 50°60' E 001°19'2 4.5
2018-Jan-05 14:00N 51°01' E 001°22'2 4.5
2018-Jan-05 13:30N 51°03' E 001°24'2 4.6
2018-Jan-05 13:00N 51°05' E 001°27'2 4.9
2018-Jan-05 12:30N 51°07' E 001°25'3 5.6
2018-Jan-05 12:00N 51°09' E 001°26'2 3.5
2018-Jan-05 11:28N 51°11' E 001°27'0 0.3
2018-Jan-05 10:58N 51°11' E 001°27'0 0.3
2018-Jan-05 10:28N 51°11' E 001°27'0 0.1
2018-Jan-05 09:58N 51°11' E 001°27'0 0.0
2018-Jan-05 09:28N 51°11' E 001°27'0 0.4
2018-Jan-05 09:00N 51°11' E 001°27'2 3.3
2018-Jan-05 08:30N 51°09' E 001°28'3 6.2
2018-Jan-05 08:00N 51°06' E 001°27'3 5.2
2018-Jan-05 07:30N 51°06' E 001°31'5 9.4
2018-Jan-05 07:00N 51°09' E 001°37'4 8.9
2018-Jan-05 06:30N 51°12' E 001°42'4 8.5
2018-Jan-05 06:00N 51°15' E 001°47'4 8.5
2018-Jan-05 05:31N 51°19' E 001°50'4 8.5
2018-Jan-05 05:00N 51°23' E 001°53'4 8.3
2018-Jan-05 04:30N 51°27' E 001°55'4 7.1
2018-Jan-05 04:00N 51°30' E 001°58'2 3.3
2018-Jan-05 03:30N 51°31' E 001°59'1 2.8
2018-Jan-05 03:00N 51°32' E 002°01'2 4.0
2018-Jan-05 02:30N 51°32' E 002°04'2 4.5
2018-Jan-05 01:58N 51°32' E 002°08'3 5.1
2018-Jan-05 01:25N 51°34' E 002°11'89 9.3
2018-Jan-04 15:54N 52°44' E 003°40'3 8.4
2018-Jan-04 15:30N 52°47' E 003°43'4 7.9
2018-Jan-04 14:59N 52°50' E 003°47'11 9.1
2018-Jan-04 13:47N 52°58' E 003°60'1210.0
2018-Jan-04 12:34N 53°06' E 004°15'110.2
2018-Jan-04 12:26N 53°07' E 004°17'183 6.5
2018-Jan-03 08:20N 55°50' E 006°42'2 7.4
2018-Jan-03 08:00N 55°52' E 006°43'510.3
2018-Jan-03 07:29N 55°57' E 006°47'5 9.4
2018-Jan-03 06:59N 56°01' E 006°50'3 7.0
2018-Jan-03 06:30N 56°04' E 006°52'126 7.6
2018-Jan-02 14:01N 57°55' E 008°41'010.1
2018-Jan-02 14:00N 57°55' E 008°41'5 9.7
2018-Jan-02 13:30N 57°60' E 008°45'10 9.7
2018-Jan-02 12:31N 58°07' E 008°56'0 9.5
2018-Jan-02 12:30N 58°07' E 008°56'5 9.2
2018-Jan-02 12:00N 58°11' E 009°02'5 9.0
2018-Jan-02 11:28N 58°15' E 009°07'21 9.1
2018-Jan-02 09:11N 58°30' E 009°33'6 9.0
2018-Jan-02 08:30N 58°35' E 009°41'4 8.8
2018-Jan-02 08:00N 58°39' E 009°45'5 9.3
2018-Jan-02 07:30N 58°44' E 009°46'5 9.4
2018-Jan-02 07:00N 58°48' E 009°47'5 9.2
2018-Jan-02 06:30N 58°53' E 009°48'5 9.2
2018-Jan-02 06:00N 58°57' E 009°47'4 8.7
2018-Jan-02 05:30N 59°02' E 009°44'7 6.7
2018-Jan-02 04:30N 59°07' E 009°37'0 0.5
2018-Jan-02 04:00N 59°07' E 009°37'0 0.0
2018-Jan-02 03:30N 59°07' E 009°37'0 0.0
2018-Jan-02 03:00N 59°07' E 009°37'0 0.0
2018-Jan-02 02:30N 59°07' E 009°37'0 0.0
2018-Jan-02 02:00N 59°07' E 009°37'0 0.0
2018-Jan-02 01:30N 59°07' E 009°37'0 0.0
2018-Jan-02 01:00N 59°07' E 009°37'0 0.0
2018-Jan-02 00:30N 59°07' E 009°37'0 0.0
2018-Jan-02 00:00N 59°07' E 009°37'0 0.0
2018-Jan-01 23:30N 59°07' E 009°37'0 0.0
2018-Jan-01 23:00N 59°07' E 009°37'0 0.0
2018-Jan-01 22:30N 59°07' E 009°37'0 0.0
2018-Jan-01 22:00N 59°07' E 009°37'0 0.0
2018-Jan-01 21:30N 59°07' E 009°37'0 0.0
2018-Jan-01 21:00N 59°07' E 009°37'0 0.0
2018-Jan-01 20:30N 59°07' E 009°37'0 0.0
2018-Jan-01 20:00N 59°07' E 009°37'0 0.0
2018-Jan-01 19:30N 59°07' E 009°37'0 0.0
2018-Jan-01 19:00N 59°07' E 009°37'0 0.0
2018-Jan-01 18:30N 59°07' E 009°37'0 0.0
2018-Jan-01 18:00N 59°07' E 009°37'0 0.0
2018-Jan-01 17:30N 59°07' E 009°37'0 0.0
2018-Jan-01 15:00N 59°07' E 009°37'0 0.0
2018-Jan-01 14:30N 59°07' E 009°37'0 0.0
2018-Jan-01 14:00N 59°07' E 009°37'0 0.0
2018-Jan-01 13:30N 59°07' E 009°37'0 0.0
2018-Jan-01 13:00N 59°07' E 009°37'0 0.0
2018-Jan-01 12:00N 59°07' E 009°37'0 0.0
2018-Jan-01 11:30N 59°07' E 009°37'0 0.0
2018-Jan-01 11:00N 59°07' E 009°37'0 0.0
2018-Jan-01 10:30N 59°07' E 009°37'0 0.0
2018-Jan-01 10:00N 59°07' E 009°37'0 0.0
2018-Jan-01 09:30N 59°07' E 009°37'0 0.0
2018-Jan-01 08:30N 59°07' E 009°37'0 0.0
2018-Jan-01 08:00N 59°07' E 009°37'0 0.0
2018-Jan-01 07:30N 59°07' E 009°37'0 0.0
2018-Jan-01 07:00N 59°07' E 009°37'0 0.0
2018-Jan-01 06:00N 59°07' E 009°37'0 0.0
2018-Jan-01 05:30N 59°07' E 009°37'0 0.0
2018-Jan-01 05:00N 59°07' E 009°37'0 0.0
2018-Jan-01 04:00N 59°07' E 009°37'0 0.0
2018-Jan-01 03:30N 59°07' E 009°37'0 0.0
2018-Jan-01 03:00N 59°07' E 009°37'0 0.0
2018-Jan-01 02:30N 59°07' E 009°37'0 0.0
2018-Jan-01 02:00N 59°07' E 009°37'0 0.0
2018-Jan-01 01:30N 59°07' E 009°37'2 2.1
2018-Jan-01 00:30N 59°05' E 009°38'15 4.3
2017-Dec-31 21:00N 58°51' E 009°46'1 1.6
2017-Dec-31 20:31N 58°51' E 009°48'1 2.6
2017-Dec-31 20:00N 58°53' E 009°48'4 8.1
2017-Dec-31 19:30N 58°49' E 009°48'612.4
2017-Dec-31 19:00N 58°42' E 009°48'3811.4
2017-Dec-31 15:41N 58°10' E 009°12'212.3
2017-Dec-31 15:31N 58°08' E 009°09'1012.3
2017-Dec-31 14:44N 58°01' E 008°58'412.2
2017-Dec-31 14:23N 57°58' E 008°52'29412.1
2017-Dec-30 14:09N 53°37' E 004°51'212.1
2017-Dec-30 14:00N 53°35' E 004°50'1212.7
2017-Dec-30 13:01N 53°24' E 004°42'2414.2
2017-Dec-30 11:19N 53°03' E 004°23'413.1
2017-Dec-30 11:00N 52°59' E 004°20'612.8
2017-Dec-30 10:30N 52°53' E 004°17'612.5
2017-Dec-30 10:00N 52°48' E 004°11'612.3
2017-Dec-30 09:30N 52°43' E 004°04'712.2
2017-Dec-30 08:58N 52°40' E 003°55'8510.8
2017-Dec-30 01:04N 51°27' E 002°42'112.3
2017-Dec-30 00:59N 51°26' E 002°42'510.7
2017-Dec-30 00:30N 51°22' E 002°46'  

Dump ship's entire track history